Time;durP1;ratioP1;P1;durP2;ratioP2;P2;SDS_P1;SDS_P2;PMS_P1;PMS_P2;Temp;Humidity;BMP_temperature;BMP_pressure;BME280_temperature;BME280_humidity;BME280_pressure;Samples;Min_cycle;Max_cycle;Signal;HPM_P1;HPM_P2
2023/04/24 00:01:10;;;;;;;8.40;5.00;;;;;;;12.21;84.07;99514.55;105285;1257;69075;-64
2023/04/24 00:03:39;;;;;;;8.40;5.20;;;;;;;12.19;84.34;99512.55;105271;1259;74914;-64
2023/04/24 00:06:10;;;;;;;7.70;5.40;;;;;;;12.18;84.32;99513.85;105326;1258;82482;-64
2023/04/24 00:08:38;;;;;;;7.20;5.20;;;;;;;12.17;84.59;99507.25;105182;1259;73678;-64
2023/04/24 00:11:06;;;;;;;7.10;5.50;;;;;;;12.16;84.59;99505.73;105128;1260;69147;-64
2023/04/24 00:13:35;;;;;;;7.10;5.30;;;;;;;12.15;84.81;99503.65;105272;1267;69199;-64
2023/04/24 00:16:03;;;;;;;9.50;6.00;;;;;;;12.14;85.03;99507.22;105307;1260;74954;-64
2023/04/24 00:18:32;;;;;;;7.80;5.50;;;;;;;12.12;85.15;99507.20;105384;1259;82306;-64
2023/04/24 00:21:00;;;;;;;9.60;6.10;;;;;;;12.09;85.33;99506.81;105294;1258;73732;-64
2023/04/24 00:23:28;;;;;;;10.00;6.40;;;;;;;12.06;85.37;99499.81;105268;1257;69132;-64
2023/04/24 00:25:56;;;;;;;10.20;6.50;;;;;;;12.02;85.54;99494.23;105295;1258;69141;-64
2023/04/24 00:28:24;;;;;;;7.80;5.90;;;;;;;12.00;85.73;99490.52;105236;1260;75112;-64
2023/04/24 00:30:53;;;;;;;10.20;6.40;;;;;;;11.98;85.88;99485.20;105228;1261;83172;-63
2023/04/24 00:33:21;;;;;;;9.60;6.30;;;;;;;11.96;86.11;99478.30;105366;1261;73747;-64
2023/04/24 00:35:50;;;;;;;9.60;6.70;;;;;;;11.96;86.36;99472.55;105295;1259;69186;-64
2023/04/24 00:38:18;;;;;;;9.30;6.20;;;;;;;11.97;86.74;99468.27;105291;1257;69186;-64
2023/04/24 00:40:49;;;;;;;8.00;6.30;;;;;;;11.98;86.75;99468.57;105316;1259;75187;-64
2023/04/24 00:43:17;;;;;;;8.60;6.10;;;;;;;12.00;86.93;99466.93;105103;1257;81861;-64
2023/04/24 00:45:46;;;;;;;8.70;6.20;;;;;;;11.99;87.17;99465.18;105296;1259;73986;-64
2023/04/24 00:48:14;;;;;;;8.90;6.50;;;;;;;11.99;87.26;99462.05;105350;1259;69179;-64
2023/04/24 00:50:42;;;;;;;9.20;6.50;;;;;;;11.99;87.19;99461.02;105165;1260;69211;-64
2023/04/24 00:53:11;;;;;;;9.70;6.30;;;;;;;12.00;87.50;99461.84;105159;1258;75102;-64
2023/04/24 00:55:40;;;;;;;8.00;6.70;;;;;;;12.01;87.65;99463.50;105300;1260;83412;-64
2023/04/24 00:58:08;;;;;;;10.20;6.50;;;;;;;12.05;87.65;99459.62;105134;1257;73755;-64
2023/04/24 01:00:36;;;;;;;8.80;6.50;;;;;;;12.05;87.66;99455.73;105092;1258;69197;-64
2023/04/24 01:03:05;;;;;;;8.80;6.30;;;;;;;12.04;87.62;99452.11;105308;1258;69160;-64
2023/04/24 01:05:34;;;;;;;9.90;6.80;;;;;;;12.03;87.63;99447.96;105335;1256;74904;-64
2023/04/24 01:08:02;;;;;;;8.80;6.40;;;;;;;12.02;87.62;99448.73;105258;1260;83362;-64
2023/04/24 01:10:33;;;;;;;9.40;7.40;;;;;;;12.02;87.78;99446.14;105378;1258;73677;-64
2023/04/24 01:13:01;;;;;;;9.60;6.90;;;;;;;12.01;87.86;99443.53;105227;1259;69247;-64
2023/04/24 01:15:30;;;;;;;9.80;6.20;;;;;;;11.99;87.73;99437.91;105159;1258;69135;-64
2023/04/24 01:17:58;;;;;;;12.20;7.10;;;;;;;11.95;87.79;99432.67;105290;1258;74980;-64
2023/04/24 01:20:26;;;;;;;10.50;6.80;;;;;;;11.92;87.86;99434.45;105303;1260;83515;-64
2023/04/24 01:22:56;;;;;;;8.20;7.00;;;;;;;11.87;87.93;99432.47;105301;1257;73944;-64
2023/04/24 01:25:25;;;;;;;10.90;7.10;;;;;;;11.83;88.03;99431.59;105071;1257;69207;-64
2023/04/24 01:27:53;;;;;;;12.20;7.60;;;;;;;11.80;88.07;99430.55;105146;1258;69100;-64
2023/04/24 01:30:22;;;;;;;11.20;7.80;;;;;;;11.76;88.34;99432.20;105324;1260;73971;-64
2023/04/24 01:32:51;;;;;;;10.70;7.50;;;;;;;11.74;88.41;99432.48;105345;1257;83525;-64
2023/04/24 01:35:20;;;;;;;8.90;7.10;;;;;;;11.73;88.42;99427.80;105373;1257;73763;-64
2023/04/24 01:37:48;;;;;;;12.00;8.50;;;;;;;11.70;88.23;99426.40;105169;1254;69255;-64
2023/04/24 01:40:16;;;;;;;10.90;8.60;;;;;;;11.68;88.41;99423.06;105091;1261;69188;-64
2023/04/24 01:42:45;;;;;;;10.00;8.30;;;;;;;11.67;88.70;99419.08;105351;1259;74584;-64
2023/04/24 01:45:13;;;;;;;13.10;9.20;;;;;;;11.68;88.84;99416.23;105341;1257;83980;-64
2023/04/24 01:47:41;;;;;;;11.80;8.80;;;;;;;11.68;89.00;99413.75;105272;1260;73873;-64
2023/04/24 01:50:10;;;;;;;9.10;7.60;;;;;;;11.67;88.97;99413.79;105160;1261;69136;-64
2023/04/24 01:52:39;;;;;;;10.30;7.70;;;;;;;11.63;88.75;99412.30;105228;1260;69535;-64
2023/04/24 01:55:10;;;;;;;12.70;8.90;;;;;;;11.59;88.69;99416.88;105206;1260;73873;-64
2023/04/24 01:57:38;;;;;;;11.70;8.50;;;;;;;11.57;88.95;99413.86;105306;1257;83496;-64
2023/04/24 02:00:07;;;;;;;10.80;9.20;;;;;;;11.54;88.97;99414.01;105346;1257;74050;-64
2023/04/24 02:02:41;;;;;;;11.10;8.70;;;;;;;11.50;89.02;99413.91;105322;1256;69190;-64
2023/04/24 02:05:14;;;;;;;14.00;9.80;;;;;;;11.48;89.25;99408.43;105219;1260;69148;-64
2023/04/24 02:07:43;;;;;;;14.40;9.60;;;;;;;11.48;89.40;99405.09;105140;1260;74962;-63
2023/04/24 02:10:11;;;;;;;16.30;10.60;;;;;;;11.50;89.51;99395.90;105314;1257;82431;-63
2023/04/24 02:12:42;;;;;;;13.40;9.80;;;;;;;11.51;89.70;99393.74;105384;1259;73723;-63
2023/04/24 02:15:12;;;;;;;11.50;9.70;;;;;;;11.52;89.76;99391.02;105295;1257;69238;-63
2023/04/24 02:17:40;;;;;;;11.70;9.80;;;;;;;11.52;89.72;99386.29;105351;1254;69087;-63
2023/04/24 02:20:08;;;;;;;12.90;9.60;;;;;;;11.52;89.79;99387.01;105330;1260;75176;-63
2023/04/24 02:22:39;;;;;;;14.00;9.70;;;;;;;11.51;89.61;99379.23;105366;1257;83290;-63
2023/04/24 02:25:08;;;;;;;13.00;9.70;;;;;;;11.48;89.75;99380.95;105323;1257;73711;-63
2023/04/24 02:27:36;;;;;;;12.80;9.30;;;;;;;11.46;89.96;99377.77;105186;1258;69227;-63
2023/04/24 02:30:07;;;;;;;10.40;9.10;;;;;;;11.40;89.44;99375.27;105298;1258;69215;-64
2023/04/24 02:32:35;;;;;;;10.90;9.70;;;;;;;11.33;89.50;99377.23;105394;1257;74569;-63
2023/04/24 02:35:04;;;;;;;12.20;9.80;;;;;;;11.29;89.72;99370.63;105309;1259;83316;-64
2023/04/24 02:37:33;;;;;;;14.20;10.20;;;;;;;11.26;89.94;99364.84;105346;1258;72882;-63
2023/04/24 02:40:01;;;;;;;13.80;10.10;;;;;;;11.24;90.04;99360.81;105144;1256;69292;-63
2023/04/24 02:42:29;;;;;;;12.80;9.60;;;;;;;11.21;90.05;99356.25;105322;1259;69125;-63
2023/04/24 02:44:58;;;;;;;14.70;10.40;;;;;;;11.16;90.06;99356.65;105311;1260;75457;-63
2023/04/24 02:47:26;;;;;;;12.00;9.40;;;;;;;11.13;90.27;99351.42;105372;1260;83511;-63
2023/04/24 02:49:55;;;;;;;13.30;10.30;;;;;;;11.12;90.38;99346.44;105104;1260;73666;-63
2023/04/24 02:52:23;;;;;;;13.80;10.40;;;;;;;11.09;90.38;99340.45;105129;1257;69138;-63
2023/04/24 02:54:51;;;;;;;14.00;9.90;;;;;;;11.08;90.65;99339.81;105168;1258;69081;-63
2023/04/24 02:57:19;;;;;;;13.90;9.20;;;;;;;11.06;90.58;99334.36;105174;1256;73865;-63
2023/04/24 02:59:48;;;;;;;12.60;9.30;;;;;;;11.02;90.49;99334.04;105239;1260;83103;-63
2023/04/24 03:02:16;;;;;;;10.10;8.30;;;;;;;10.98;90.28;99332.39;105150;1260;73701;-63
2023/04/24 03:04:45;;;;;;;9.10;7.80;;;;;;;10.90;90.05;99334.33;105175;1257;69227;-63
2023/04/24 03:07:14;;;;;;;11.90;8.90;;;;;;;10.84;89.90;99335.91;105263;1260;69197;-63
2023/04/24 03:09:43;;;;;;;12.90;10.20;;;;;;;10.79;90.25;99334.98;105210;1260;74132;-63
2023/04/24 03:12:12;;;;;;;12.70;9.70;;;;;;;10.77;90.64;99330.70;105258;1258;83910;-65
2023/04/24 03:14:40;;;;;;;13.80;10.50;;;;;;;10.79;91.06;99331.84;105172;1257;73686;-63
2023/04/24 03:17:08;;;;;;;14.30;10.20;;;;;;;10.82;91.43;99334.99;105157;1257;69151;-63
2023/04/24 03:19:36;;;;;;;13.10;10.70;;;;;;;10.85;91.69;99336.20;105196;1257;69088;-63
2023/04/24 03:22:09;;;;;;;15.40;11.00;;;;;;;10.90;91.94;99336.29;105217;1256;75050;-63
2023/04/24 03:24:38;;;;;;;16.10;12.30;;;;;;;10.95;92.20;99340.36;105271;1260;83839;-63
2023/04/24 03:27:06;;;;;;;15.00;11.80;;;;;;;11.03;92.33;99343.45;105160;1257;74214;-65
2023/04/24 03:30:02;;;;;;;15.60;11.80;;;;;;;11.09;92.59;99338.05;105109;1256;69345;-62
2023/04/24 03:32:50;;;;;;;15.10;11.30;;;;;;;11.14;92.41;99336.49;105194;1260;69191;-62
2023/04/24 03:35:23;;;;;;;12.70;11.20;;;;;;;11.16;92.21;99332.02;105170;1257;74791;-62
2023/04/24 03:37:51;;;;;;;16.00;11.40;;;;;;;11.19;92.16;99329.95;105186;1260;83465;-62
2023/04/24 03:40:40;;;;;;;14.20;10.20;;;;;;;11.20;92.14;99325.89;104935;1256;72520;-62
2023/04/24 03:43:21;;;;;;;17.10;11.40;;;;;;;11.19;91.73;99332.75;105140;1257;69193;-64
2023/04/24 03:45:50;;;;;;;15.00;11.00;;;;;;;11.17;91.72;99337.59;105118;1258;69081;-64
2023/04/24 03:48:19;;;;;;;14.50;11.40;;;;;;;11.16;91.87;99337.97;105221;1260;75157;-62
2023/04/24 03:50:48;;;;;;;15.10;11.40;;;;;;;11.19;92.15;99333.62;105298;1259;83463;-63
2023/04/24 03:53:16;;;;;;;14.50;11.10;;;;;;;11.23;92.22;99336.69;105211;1259;72707;-62
2023/04/24 03:55:45;;;;;;;13.70;11.60;;;;;;;11.27;92.21;99343.47;105172;1258;69023;-62
2023/04/24 03:58:15;;;;;;;12.80;10.60;;;;;;;11.31;92.20;99346.91;105255;1259;69190;-62
2023/04/24 04:00:44;;;;;;;13.00;10.50;;;;;;;11.34;92.19;99347.27;105313;1259;73043;-64
2023/04/24 04:03:35;;;;;;;15.90;11.50;;;;;;;11.37;92.14;99347.78;105146;1259;83344;-63
2023/04/24 04:06:04;;;;;;;15.30;11.40;;;;;;;11.42;92.19;99349.48;105368;1259;73174;-62
2023/04/24 04:08:33;;;;;;;13.60;10.30;;;;;;;11.46;92.29;99350.27;105377;1256;69085;-64
2023/04/24 04:11:01;;;;;;;15.60;10.60;;;;;;;11.52;92.47;99343.95;105348;1260;69132;-62
2023/04/24 04:13:32;;;;;;;15.60;11.20;;;;;;;11.58;92.25;99340.83;105364;1257;74357;-63
2023/04/24 04:16:00;;;;;;;13.40;10.90;;;;;;;11.63;92.43;99342.83;105363;1256;83781;-63
2023/04/24 04:18:29;;;;;;;14.10;10.50;;;;;;;11.67;92.09;99343.80;105096;1261;72793;-63
2023/04/24 04:20:57;;;;;;;10.90;9.70;;;;;;;11.71;92.17;99340.92;105355;1257;69206;-63
2023/04/24 04:23:25;;;;;;;17.90;10.20;;;;;;;11.74;92.17;99342.51;105164;1257;69114;-63
2023/04/24 04:26:14;;;;;;;14.90;10.80;;;;;;;11.76;92.28;99337.83;105332;1258;75071;-63
2023/04/24 04:29:08;;;;;;;14.60;10.70;;;;;;;11.77;91.97;99342.16;105282;1259;83392;-63
2023/04/24 04:31:40;;;;;;;12.30;9.50;;;;;;;11.76;91.64;99340.13;105330;1257;72485;-63
2023/04/24 04:34:13;;;;;;;14.40;10.30;;;;;;;11.75;91.53;99337.73;105168;1258;69202;-62
2023/04/24 04:36:43;;;;;;;14.30;9.90;;;;;;;11.75;91.57;99334.73;105269;1255;69049;-62
2023/04/24 04:39:21;;;;;;;11.30;9.40;;;;;;;11.76;91.51;99330.51;105308;1259;73847;-62
2023/04/24 04:42:00;;;;;;;13.10;9.80;;;;;;;11.76;91.55;99332.78;105293;1257;84279;-62
2023/04/24 04:44:35;;;;;;;14.30;9.70;;;;;;;11.76;91.39;99337.34;105105;1260;73110;-62
2023/04/24 04:47:05;;;;;;;14.20;9.90;;;;;;;11.76;91.51;99341.89;105107;1257;69123;-62
2023/04/24 04:49:38;;;;;;;14.40;9.60;;;;;;;11.75;91.19;99345.09;105141;1257;69205;-62
2023/04/24 04:52:09;;;;;;;12.90;9.90;;;;;;;11.72;91.28;99352.08;105230;1259;74921;-62
2023/04/24 04:54:38;;;;;;;13.30;9.60;;;;;;;11.70;91.27;99347.33;105225;1258;83551;-62
2023/04/24 04:57:06;;;;;;;12.60;9.40;;;;;;;11.71;91.47;99351.11;105258;1259;74054;-62
2023/04/24 04:59:35;;;;;;;14.10;9.40;;;;;;;11.75;91.67;99352.27;105278;1257;69706;-62
2023/04/24 05:02:06;;;;;;;11.30;8.90;;;;;;;11.80;91.70;99350.06;105139;1256;69210;-62
2023/04/24 05:04:34;;;;;;;12.10;8.60;;;;;;;11.83;91.50;99351.06;105232;1259;75107;-62
2023/04/24 05:07:03;;;;;;;13.40;8.50;;;;;;;11.89;91.36;99349.56;105325;1259;83248;-62
2023/04/24 05:09:32;;;;;;;11.00;8.80;;;;;;;11.94;91.38;99349.57;105128;1257;73674;-62
2023/04/24 05:12:03;;;;;;;10.90;8.30;;;;;;;11.99;91.50;99350.67;105293;1256;69198;-62
2023/04/24 05:14:35;;;;;;;13.10;9.00;;;;;;;12.04;91.40;99351.09;105200;1259;69241;-62
2023/04/24 05:17:03;;;;;;;12.70;9.10;;;;;;;12.09;91.21;99353.79;105140;1256;74618;-62
2023/04/24 05:19:35;;;;;;;12.00;9.00;;;;;;;12.13;91.20;99352.15;105081;1259;83511;-62
2023/04/24 05:22:06;;;;;;;13.20;8.60;;;;;;;12.16;91.10;99352.86;108842;1254;73928;-62
2023/04/24 05:24:36;;;;;;;13.60;8.90;;;;;;;12.19;90.96;99354.73;105142;1257;69097;-64
2023/04/24 05:27:14;;;;;;;10.40;8.20;;;;;;;12.22;90.60;99361.40;105098;1256;69114;-62
2023/04/24 05:29:43;;;;;;;10.20;7.70;;;;;;;12.26;90.55;99359.75;106851;1257;75100;-64
2023/04/24 05:32:12;;;;;;;10.80;8.30;;;;;;;12.32;90.45;99359.98;105185;1258;82516;-62
2023/04/24 05:34:41;;;;;;;10.20;8.40;;;;;;;12.35;90.47;99365.69;105248;1257;73468;-61
2023/04/24 05:37:10;;;;;;;12.10;8.60;;;;;;;12.41;90.48;99364.11;105370;1256;69121;-61
2023/04/24 05:39:38;;;;;;;13.20;8.40;;;;;;;12.45;90.46;99364.75;105276;1256;69052;-61
2023/04/24 05:42:07;;;;;;;11.30;8.20;;;;;;;12.47;90.03;99369.85;105260;1259;74963;-61
2023/04/24 05:44:35;;;;;;;14.30;9.40;;;;;;;12.49;89.92;99375.67;105342;1259;83555;-62
2023/04/24 05:47:03;;;;;;;12.10;8.70;;;;;;;12.49;90.00;99379.91;105179;1258;73931;-61
2023/04/24 05:49:32;;;;;;;16.70;8.90;;;;;;;12.52;90.02;99382.70;105445;1257;69418;-61
2023/04/24 05:52:02;;;;;;;10.90;9.10;;;;;;;12.55;89.95;99384.82;105249;1259;69127;-60
2023/04/24 05:54:31;;;;;;;8.60;7.30;;;;;;;12.57;89.88;99390.67;105327;1259;75581;-60
2023/04/24 05:57:00;;;;;;;9.90;7.60;;;;;;;12.58;89.97;99391.14;105158;1260;83445;-61
2023/04/24 05:59:38;;;;;;;11.10;7.40;;;;;;;12.58;89.74;99395.52;105269;1256;73789;-60
2023/04/24 06:02:07;;;;;;;10.80;7.40;;;;;;;12.59;89.98;99391.55;105220;1259;69213;-60
2023/04/24 06:04:36;;;;;;;11.40;7.90;;;;;;;12.60;89.66;99393.23;105466;1255;69154;-60
2023/04/24 06:07:05;;;;;;;10.90;7.60;;;;;;;12.62;89.71;99396.12;105152;1257;75630;-60
2023/04/24 06:09:33;;;;;;;7.70;6.70;;;;;;;12.64;89.65;99400.23;105410;1256;83165;-59
2023/04/24 06:12:02;;;;;;;12.70;7.70;;;;;;;12.64;89.67;99402.31;105175;1257;72760;-59
2023/04/24 06:14:39;;;;;;;9.70;7.30;;;;;;;12.68;89.88;99405.92;105374;1256;69081;-60
2023/04/24 06:17:40;;;;;;;10.60;7.50;;;;;;;12.71;89.70;99412.73;104986;1255;69097;-60
2023/04/24 06:20:10;;;;;;;9.60;7.70;;;;;;;12.72;89.48;99412.86;105286;1256;74573;-59
2023/04/24 06:22:39;;;;;;;17.20;7.30;;;;;;;12.71;89.42;99416.42;105403;1259;83548;-60
2023/04/24 06:25:08;;;;;;;10.40;7.90;;;;;;;12.73;89.62;99414.54;105281;1257;73775;-59
2023/04/24 06:27:36;;;;;;;8.20;6.80;;;;;;;12.77;89.58;99420.27;105520;1260;69228;-60
2023/04/24 06:30:06;;;;;;;8.50;6.90;;;;;;;12.82;89.52;99423.83;105355;1255;69178;-60
2023/04/24 06:32:34;;;;;;;8.80;7.10;;;;;;;12.86;89.37;99425.87;105421;1259;74191;-60
2023/04/24 06:35:03;;;;;;;9.90;7.10;;;;;;;12.88;89.61;99420.45;105436;1259;83345;-59
2023/04/24 06:37:32;;;;;;;7.90;6.60;;;;;;;12.91;89.34;99425.36;105361;1256;73929;-60
2023/04/24 06:40:01;;;;;;;10.20;7.30;;;;;;;12.95;89.16;99422.67;105370;1255;69117;-60
2023/04/24 06:42:30;;;;;;;8.90;6.80;;;;;;;13.00;89.27;99419.87;105366;1259;69113;-60
2023/04/24 06:44:58;;;;;;;8.50;6.80;;;;;;;13.06;89.19;99419.00;105260;1259;74890;-59
2023/04/24 06:47:26;;;;;;;8.50;6.50;;;;;;;13.12;89.18;99415.98;105345;1259;83463;-60
2023/04/24 06:49:55;;;;;;;9.20;6.50;;;;;;;13.15;88.89;99415.42;105378;1259;73587;-59
2023/04/24 06:52:23;;;;;;;9.60;7.40;;;;;;;13.18;88.95;99409.44;105271;1256;69200;-59
2023/04/24 06:54:51;;;;;;;10.40;6.80;;;;;;;13.22;88.87;99410.77;105266;1258;69107;-60
2023/04/24 06:57:20;;;;;;;10.10;7.50;;;;;;;13.25;88.67;99409.23;105244;1257;74517;-59
2023/04/24 06:59:48;;;;;;;12.00;7.90;;;;;;;13.25;88.61;99409.75;105361;1259;83560;-60
2023/04/24 07:02:17;;;;;;;8.00;6.80;;;;;;;13.23;88.19;99405.11;105236;1258;73927;-60
2023/04/24 07:04:47;;;;;;;14.50;7.60;;;;;;;13.21;88.30;99405.96;105737;1256;69206;-58
2023/04/24 07:07:16;;;;;;;10.00;7.80;;;;;;;13.17;88.26;99407.92;105204;1259;69071;-60
2023/04/24 07:09:45;;;;;;;9.00;7.10;;;;;;;13.19;88.63;99408.88;105339;1256;74794;-60
2023/04/24 07:12:13;;;;;;;10.30;7.10;;;;;;;13.24;88.62;99411.58;105306;1257;82825;-60
2023/04/24 07:14:42;;;;;;;9.50;6.80;;;;;;;13.33;88.66;99412.08;105306;1255;73781;-60
2023/04/24 07:17:13;;;;;;;11.80;7.10;;;;;;;13.45;88.84;99405.33;105400;1256;69129;-60
2023/04/24 07:19:41;;;;;;;8.10;6.30;;;;;;;13.61;88.92;99404.44;105391;1256;69166;-61
2023/04/24 07:22:16;;;;;;;12.70;6.80;;;;;;;13.74;88.58;99403.73;105421;1259;75493;-63
2023/04/24 07:24:44;;;;;;;8.30;6.20;;;;;;;13.85;88.64;99397.60;105376;1259;83414;-59
2023/04/24 07:27:14;;;;;;;7.10;5.50;;;;;;;13.97;88.47;99396.59;105415;1256;74332;-60
2023/04/24 07:29:43;;;;;;;6.60;5.60;;;;;;;14.09;88.04;99397.19;105486;1257;69176;-60
2023/04/24 07:32:12;;;;;;;8.90;5.10;;;;;;;14.24;87.90;99396.55;105476;1259;69218;-60
2023/04/24 07:34:40;;;;;;;7.00;6.00;;;;;;;14.38;87.86;99394.90;105289;1259;74467;-59
2023/04/24 07:37:08;;;;;;;8.60;5.90;;;;;;;14.50;87.45;99394.40;105427;1256;83532;-59
2023/04/24 07:39:37;;;;;;;8.10;5.40;;;;;;;14.61;87.15;99396.14;105395;1259;73704;-60
2023/04/24 07:42:05;;;;;;;6.20;5.00;;;;;;;14.72;86.80;99398.16;105381;1256;69081;-60
2023/04/24 07:44:33;;;;;;;9.50;5.70;;;;;;;14.83;86.50;99402.54;105371;1256;69206;-60
2023/04/24 07:47:01;;;;;;;8.60;5.50;;;;;;;14.91;86.19;99406.66;105301;1257;74864;-62
2023/04/24 07:49:29;;;;;;;7.50;5.20;;;;;;;15.01;85.74;99406.36;105207;1257;83841;-61
2023/04/24 07:52:00;;;;;;;8.00;5.10;;;;;;;15.09;85.28;99406.64;105469;1257;73399;-61
2023/04/24 07:54:29;;;;;;;6.00;5.20;;;;;;;15.16;85.10;99407.85;105429;1256;70014;-61
2023/04/24 07:56:57;;;;;;;6.40;5.20;;;;;;;15.28;84.89;99408.48;105386;1256;69707;-61
2023/04/24 07:59:25;;;;;;;5.30;4.70;;;;;;;15.42;84.46;99411.16;105329;1259;73889;-61
2023/04/24 08:01:54;;;;;;;6.40;5.10;;;;;;;15.55;84.44;99410.53;105309;1256;83564;-62
2023/04/24 08:04:22;;;;;;;8.60;3.80;;;;;;;15.71;83.97;99404.60;105355;1256;73847;-61
2023/04/24 08:06:51;;;;;;;8.90;4.50;;;;;;;15.88;83.66;99409.22;105370;1256;69172;-63
2023/04/24 08:09:19;;;;;;;6.00;4.00;;;;;;;16.02;83.12;99408.96;105169;1256;69112;-62
2023/04/24 08:11:47;;;;;;;5.90;4.10;;;;;;;16.13;82.45;99410.99;105366;1257;73668;-61
2023/04/24 08:14:15;;;;;;;8.20;3.70;;;;;;;16.23;82.31;99415.90;105179;1257;82512;-61
2023/04/24 08:16:43;;;;;;;6.40;3.90;;;;;;;16.30;81.71;99408.33;105345;1259;72757;-61
2023/04/24 08:19:12;;;;;;;5.30;3.70;;;;;;;16.34;81.51;99411.73;105248;1255;69296;-62
2023/04/24 08:21:40;;;;;;;8.40;3.60;;;;;;;16.39;81.25;99410.57;105252;1255;69180;-61
2023/04/24 08:24:08;;;;;;;4.80;3.60;;;;;;;16.41;80.35;99413.77;105283;1258;74101;-62
2023/04/24 08:26:36;;;;;;;7.50;3.80;;;;;;;16.36;79.68;99412.96;105229;1259;83514;-62
2023/04/24 08:29:05;;;;;;;3.70;3.40;;;;;;;16.30;79.35;99416.77;105319;1255;73911;-60
2023/04/24 08:31:35;;;;;;;5.30;3.70;;;;;;;16.33;79.35;99414.93;105383;1259;69078;-61
2023/04/24 08:34:03;;;;;;;4.50;2.90;;;;;;;16.39;79.07;99412.35;105414;1259;69192;-61
2023/04/24 08:36:31;;;;;;;4.20;3.00;;;;;;;16.52;79.08;99416.11;105317;1259;75100;-62
2023/04/24 08:39:14;;;;;;;4.70;3.30;;;;;;;16.71;78.93;99416.73;105416;1259;82253;-58
2023/04/24 08:41:43;;;;;;;5.00;2.90;;;;;;;16.91;78.73;99418.20;105344;1256;72898;-61
2023/04/24 08:44:15;;;;;;;5.20;3.20;;;;;;;17.05;78.12;99413.98;105425;1259;69135;-60
2023/04/24 08:46:47;;;;;;;3.70;2.90;;;;;;;17.24;78.06;99412.61;105294;1254;69191;-59
2023/04/24 08:49:16;;;;;;;6.90;3.30;;;;;;;17.46;77.69;99415.61;105280;1259;74927;-60
2023/04/24 08:51:46;;;;;;;5.10;2.90;;;;;;;17.56;76.96;99417.23;105354;1257;82243;-61
2023/04/24 08:54:14;;;;;;;;;;;;;;;17.65;76.09;99418.61;105503;1257;73808;-61
2023/04/24 08:56:44;;;;;;;4.40;2.90;;;;;;;17.76;75.91;99416.98;105485;1259;69179;-61
2023/04/24 08:59:14;;;;;;;3.60;2.70;;;;;;;17.82;75.17;99415.48;105465;1258;69087;-61
2023/04/24 09:01:43;;;;;;;4.50;2.60;;;;;;;17.91;75.23;99413.14;105317;1259;73989;-60
2023/04/24 09:04:16;;;;;;;4.30;2.60;;;;;;;18.06;74.94;99412.20;105365;1259;84641;-60
2023/04/24 09:06:44;;;;;;;2.70;1.80;;;;;;;18.13;74.25;99411.01;105321;1257;73709;-59
2023/04/24 09:09:13;;;;;;;2.70;1.60;;;;;;;18.10;73.04;99409.26;105217;1256;69129;-58
2023/04/24 09:11:41;;;;;;;4.30;2.20;;;;;;;18.12;73.17;99407.92;105465;1257;69174;-58
2023/04/24 09:14:10;;;;;;;4.10;2.10;;;;;;;18.22;72.97;99399.07;105223;1261;73609;-60
2023/04/24 09:16:38;;;;;;;5.00;1.90;;;;;;;18.45;73.20;99402.06;105374;1256;83478;-59
2023/04/24 09:19:07;;;;;;;3.80;2.30;;;;;;;18.61;71.92;99402.77;105243;1257;72981;-60
2023/04/24 09:21:36;;;;;;;2.30;1.60;;;;;;;18.72;71.73;99404.84;105319;1255;69084;-60
2023/04/24 09:24:06;;;;;;;4.60;1.50;;;;;;;18.89;71.66;99401.99;105402;1257;69078;-59
2023/04/24 09:26:36;;;;;;;1.70;1.20;;;;;;;19.03;70.70;99403.11;105407;1259;73273;-63
2023/04/24 09:29:04;;;;;;;1.50;1.30;;;;;;;19.17;70.39;99401.66;105312;1259;83373;-61
2023/04/24 09:31:33;;;;;;;3.40;1.70;;;;;;;19.34;70.14;99397.98;105273;1256;73677;-62
2023/04/24 09:34:08;;;;;;;1.80;1.20;;;;;;;19.40;69.13;99401.20;105300;1258;69190;-62
2023/04/24 09:36:41;;;;;;;2.60;1.60;;;;;;;19.21;68.14;99403.05;105266;1259;69204;-61
2023/04/24 09:39:12;;;;;;;2.60;1.50;;;;;;;19.09;67.83;99405.52;105525;1256;75055;-61
2023/04/24 09:41:48;;;;;;;1.90;1.30;;;;;;;19.06;67.61;99405.44;105216;1259;82421;-62
2023/04/24 09:44:21;;;;;;;2.00;1.40;;;;;;;18.98;67.19;99408.13;105330;1259;73069;-61
2023/04/24 09:47:00;;;;;;;1.80;1.30;;;;;;;18.87;66.97;99403.61;105266;1257;69221;-61
2023/04/24 09:49:30;;;;;;;2.60;1.40;;;;;;;18.77;66.70;99405.33;105289;1256;69195;-61
2023/04/24 09:52:08;;;;;;;2.20;1.40;;;;;;;18.61;66.20;99399.96;105312;1257;75128;-61
2023/04/24 09:54:38;;;;;;;3.20;1.40;;;;;;;18.41;66.03;99399.54;105339;1256;83048;-61
2023/04/24 09:57:09;;;;;;;2.40;1.30;;;;;;;18.31;66.05;99402.91;105356;1257;72705;-61
2023/04/24 09:59:45;;;;;;;3.90;1.40;;;;;;;18.22;66.14;99399.09;105297;1259;69205;-61
2023/04/24 10:02:20;;;;;;;2.10;1.50;;;;;;;18.21;66.08;99399.45;105328;1257;69250;-61
2023/04/24 10:04:58;;;;;;;2.50;1.30;;;;;;;18.30;66.16;99392.94;105335;1257;74823;-61
2023/04/24 10:07:27;;;;;;;2.20;1.50;;;;;;;18.45;65.88;99391.23;105344;1257;83287;-61
2023/04/24 10:09:56;;;;;;;1.70;1.40;;;;;;;18.66;65.57;99390.00;105361;1259;74080;-61
2023/04/24 10:12:25;;;;;;;1.40;1.00;;;;;;;18.77;65.18;99389.21;105359;1257;69085;-61
2023/04/24 10:14:53;;;;;;;3.60;1.40;;;;;;;18.88;65.39;99387.36;105183;1256;69078;-61
2023/04/24 10:17:21;;;;;;;2.80;1.40;;;;;;;18.93;64.80;99388.14;105391;1257;74753;-61
2023/04/24 10:19:50;;;;;;;2.30;1.20;;;;;;;18.91;64.72;99391.05;105392;1258;83632;-61
2023/04/24 10:22:18;;;;;;;1.10;1.00;;;;;;;18.85;64.23;99387.65;105353;1257;73397;-61
2023/04/24 10:24:47;;;;;;;1.50;0.90;;;;;;;18.80;63.84;99384.39;105391;1259;69203;-62
2023/04/24 10:27:16;;;;;;;2.40;1.10;;;;;;;18.72;63.44;99386.45;105210;1255;69171;-61
2023/04/24 10:29:45;;;;;;;1.70;1.00;;;;;;;18.61;63.28;99389.73;105385;1257;74934;-61
2023/04/24 10:32:13;;;;;;;1.70;1.00;;;;;;;18.44;63.25;99396.46;105241;1257;83648;-61
2023/04/24 10:34:41;;;;;;;3.80;1.00;;;;;;;18.26;63.39;99399.45;105276;1259;73479;-61
2023/04/24 10:37:10;;;;;;;1.60;1.00;;;;;;;18.02;63.17;99405.17;105314;1254;69132;-61
2023/04/24 10:39:40;;;;;;;1.70;1.00;;;;;;;17.78;63.36;99401.54;105366;1257;69205;-61
2023/04/24 10:42:17;;;;;;;;;;;;;;;17.62;63.87;99403.19;105356;1256;76171;-61
2023/04/24 10:44:47;;;;;;;2.10;1.40;;;;;;;17.44;63.87;99406.04;105284;1256;82594;-61
2023/04/24 10:47:16;;;;;;;2.60;1.30;;;;;;;17.33;64.22;99406.76;105297;1255;73643;-60
2023/04/24 10:49:44;;;;;;;1.70;1.00;;;;;;;17.27;64.59;99407.94;105354;1258;69121;-61
2023/04/24 10:52:14;;;;;;;1.90;1.20;;;;;;;17.25;65.09;99406.20;105293;1254;69164;-61
2023/04/24 10:54:47;;;;;;;2.30;1.10;;;;;;;17.28;65.23;99406.45;105303;1255;75109;-61
2023/04/24 10:57:18;;;;;;;2.30;1.40;;;;;;;17.32;65.60;99406.35;105308;1257;82629;-61
2023/04/24 10:59:48;;;;;;;2.80;1.50;;;;;;;17.37;65.68;99407.86;105272;1256;73506;-61
2023/04/24 11:02:17;;;;;;;3.10;1.50;;;;;;;17.52;65.74;99407.72;105340;1259;69183;-60
2023/04/24 11:04:46;;;;;;;2.20;1.20;;;;;;;17.74;65.70;99403.73;105354;1258;69149;-61
2023/04/24 11:07:14;;;;;;;2.10;1.40;;;;;;;18.03;65.52;99405.80;105360;1257;75081;-61
2023/04/24 11:09:43;;;;;;;1.60;1.30;;;;;;;18.24;64.71;99403.31;105394;1256;83430;-61
2023/04/24 11:12:13;;;;;;;3.00;1.20;;;;;;;18.38;64.35;99398.08;105357;1256;72287;-60
2023/04/24 11:14:57;;;;;;;2.30;1.40;;;;;;;18.51;64.32;99397.08;105302;1259;69187;-61
2023/04/24 11:17:40;;;;;;;3.20;1.50;;;;;;;18.57;63.45;99398.00;105325;1257;69172;-60
2023/04/24 11:20:11;;;;;;;2.20;1.20;;;;;;;18.58;63.69;99397.97;105330;1259;74246;-60
2023/04/24 11:22:57;;;;;;;1.40;1.20;;;;;;;18.61;63.24;99400.17;105278;1259;83329;-61
2023/04/24 11:25:30;;;;;;;2.60;1.30;;;;;;;18.61;62.95;99401.25;105312;1259;72565;-61
2023/04/24 11:28:05;;;;;;;2.20;1.30;;;;;;;18.55;62.65;99402.84;105309;1257;69193;-62
2023/04/24 11:30:35;;;;;;;3.10;1.30;;;;;;;18.51;62.59;99407.73;105224;1255;69167;-60
2023/04/24 11:33:04;;;;;;;1.10;1.00;;;;;;;18.50;62.83;99407.10;105289;1257;73771;-60
2023/04/24 11:35:39;;;;;;;;;;;;;;;18.43;62.63;99411.95;105234;1259;164538;-61